createdAt,value
2019-01-06T00:00:38.276Z,0
2019-01-06T00:01:37.991Z,0
2019-01-06T00:02:38.224Z,0
2019-01-06T00:03:38.205Z,0
2019-01-06T00:04:37.768Z,0
2019-01-06T00:05:38.440Z,0
2019-01-06T00:06:37.992Z,0
2019-01-06T00:07:38.416Z,0
2019-01-06T00:08:38.187Z,0
2019-01-06T00:09:37.912Z,0
2019-01-06T00:10:38.175Z,0
2019-01-06T00:11:38.191Z,0
2019-01-06T00:12:38.379Z,0
2019-01-06T00:13:38.377Z,0
2019-01-06T00:14:38.128Z,0
2019-01-06T00:15:38.211Z,0
2019-01-06T00:16:38.116Z,0
2019-01-06T00:17:37.849Z,0
2019-01-06T00:18:38.106Z,0
2019-01-06T00:19:38.164Z,0
2019-01-06T00:20:38.380Z,0
2019-01-06T00:21:38.064Z,0
2019-01-06T00:22:37.630Z,0
2019-01-06T00:23:38.083Z,0
2019-01-06T00:24:38.277Z,0
2019-01-06T00:25:37.889Z,0
2019-01-06T00:26:38.199Z,0
2019-01-06T00:27:38.042Z,0
2019-01-06T00:28:37.860Z,0
2019-01-06T00:29:37.817Z,0
2019-01-06T00:30:38.048Z,0
2019-01-06T00:31:40.196Z,0
2019-01-06T00:32:37.460Z,0
2019-01-06T00:33:37.566Z,0
2019-01-06T00:34:38.221Z,0
2019-01-06T00:35:37.691Z,0
2019-01-06T00:36:38.019Z,0
2019-01-06T00:37:38.192Z,0
2019-01-06T00:38:37.898Z,0
2019-01-06T00:39:38.095Z,0
2019-01-06T00:40:37.622Z,0
2019-01-06T00:41:37.969Z,0
2019-01-06T00:42:37.964Z,0
2019-01-06T00:43:38.046Z,0
2019-01-06T00:44:37.846Z,0
2019-01-06T00:45:37.834Z,0
2019-01-06T00:46:38.196Z,0
2019-01-06T00:47:37.571Z,0
2019-01-06T00:48:37.800Z,0
2019-01-06T00:49:37.348Z,0
2019-01-06T00:50:38.039Z,0
2019-01-06T00:51:38.041Z,0
2019-01-06T00:52:37.781Z,0
2019-01-06T00:53:37.513Z,0
2019-01-06T00:54:37.760Z,0
2019-01-06T00:55:37.738Z,0
2019-01-06T00:56:37.749Z,0
2019-01-06T00:57:37.248Z,0
2019-01-06T00:58:37.476Z,0
2019-01-06T00:59:37.724Z,0
2019-01-06T01:00:37.949Z,0
2019-01-06T01:01:38.013Z,0
2019-01-06T01:02:38.557Z,0
2019-01-06T01:03:37.678Z,0
2019-01-06T01:04:37.481Z,0
2019-01-06T01:05:37.420Z,0
2019-01-06T01:06:37.444Z,0
2019-01-06T01:07:37.923Z,0
2019-01-06T01:08:37.646Z,0
2019-01-06T01:09:38.372Z,0
2019-01-06T01:10:37.385Z,0
2019-01-06T01:11:37.433Z,0
2019-01-06T01:12:37.575Z,0
2019-01-06T01:13:37.587Z,0
2019-01-06T01:14:37.406Z,0
2019-01-06T01:15:37.445Z,0
2019-01-06T01:16:37.513Z,0
2019-01-06T01:17:37.562Z,0
2019-01-06T01:18:37.772Z,0
2019-01-06T01:19:38.792Z,0
2019-01-06T01:20:37.566Z,0
2019-01-06T01:21:37.358Z,0
2019-01-06T01:22:37.254Z,0
2019-01-06T01:23:37.267Z,0
2019-01-06T01:24:37.270Z,0
2019-01-06T01:25:37.226Z,0
2019-01-06T01:26:37.679Z,0
2019-01-06T01:27:37.196Z,0
2019-01-06T01:28:37.689Z,0
2019-01-06T01:29:37.231Z,0
2019-01-06T01:30:37.445Z,0
2019-01-06T01:31:37.312Z,0
2019-01-06T01:32:37.398Z,0
2019-01-06T01:33:36.899Z,0
2019-01-06T01:34:37.681Z,0
2019-01-06T01:35:36.897Z,0
2019-01-06T01:36:37.407Z,0
2019-01-06T01:37:37.095Z,0
2019-01-06T01:38:37.600Z,0
2019-01-06T01:39:37.332Z,0
2019-01-06T01:40:37.455Z,0
2019-01-06T01:41:37.246Z,0
2019-01-06T01:42:37.307Z,0
2019-01-06T01:43:37.307Z,0
2019-01-06T01:44:37.287Z,0
2019-01-06T01:45:37.548Z,0
2019-01-06T01:46:37.112Z,0
2019-01-06T01:47:37.512Z,0
2019-01-06T01:48:37.008Z,0
2019-01-06T01:49:37.565Z,0
2019-01-06T01:50:37.240Z,0
2019-01-06T01:51:37.490Z,0
2019-01-06T01:52:37.461Z,0
2019-01-06T01:53:36.711Z,0
2019-01-06T01:54:36.954Z,0
2019-01-06T01:55:36.936Z,0
2019-01-06T01:56:37.468Z,0
2019-01-06T01:57:36.683Z,0
2019-01-06T01:58:37.417Z,0
2019-01-06T01:59:37.173Z,0
2019-01-06T02:00:37.390Z,0
2019-01-06T02:01:37.226Z,0
2019-01-06T02:02:37.378Z,0
2019-01-06T02:03:37.184Z,0
2019-01-06T02:04:36.864Z,0
2019-01-06T02:05:37.330Z,0
2019-01-06T02:06:36.848Z,0
2019-01-06T02:07:37.333Z,0
2019-01-06T02:08:37.002Z,0
2019-01-06T02:09:37.069Z,0
2019-01-06T02:10:37.115Z,0
2019-01-06T02:11:37.150Z,0
2019-01-06T02:12:36.790Z,0
2019-01-06T02:13:37.321Z,0
2019-01-06T02:14:37.511Z,0
2019-01-06T02:15:36.766Z,0
2019-01-06T02:16:37.044Z,0
2019-01-06T02:17:37.009Z,0
2019-01-06T02:18:36.978Z,0
2019-01-06T02:19:36.728Z,0
2019-01-06T02:20:39.681Z,0
2019-01-06T02:21:37.265Z,0
2019-01-06T02:22:36.691Z,0
2019-01-06T02:23:36.989Z,0
2019-01-06T02:24:37.167Z,0
2019-01-06T02:25:36.677Z,0
2019-01-06T02:26:37.267Z,0
2019-01-06T02:27:36.900Z,0
2019-01-06T02:28:36.903Z,0
2019-01-06T02:29:37.170Z,0
2019-01-06T02:30:36.632Z,0
2019-01-06T02:31:37.118Z,0
2019-01-06T02:32:38.532Z,0
2019-01-06T02:33:37.178Z,0
2019-01-06T02:34:37.085Z,0
2019-01-06T02:35:37.071Z,0
2019-01-06T02:36:36.594Z,0
2019-01-06T02:37:37.058Z,0
2019-01-06T02:38:36.793Z,0
2019-01-06T02:39:36.536Z,0
2019-01-06T02:40:37.023Z,0
2019-01-06T02:41:37.079Z,0
2019-01-06T02:42:37.021Z,0
2019-01-06T02:43:36.744Z,0
2019-01-06T02:44:36.496Z,0
2019-01-06T02:45:36.978Z,0
2019-01-06T02:46:36.955Z,0
2019-01-06T02:47:36.959Z,0
2019-01-06T02:48:36.949Z,0
2019-01-06T02:49:36.961Z,0
2019-01-06T02:50:39.122Z,0
2019-01-06T02:51:36.967Z,0
2019-01-06T02:52:36.919Z,0
2019-01-06T02:53:36.917Z,0
2019-01-06T02:54:36.955Z,0
2019-01-06T02:55:36.903Z,0
2019-01-06T02:56:36.685Z,0
2019-01-06T02:57:36.405Z,0
2019-01-06T02:58:36.861Z,0
2019-01-06T02:59:36.855Z,0
2019-01-06T03:00:36.843Z,0
2019-01-06T03:01:36.833Z,0
2019-01-06T03:02:36.560Z,0
2019-01-06T03:03:36.843Z,0
2019-01-06T03:04:36.313Z,0
2019-01-06T03:05:36.810Z,0
2019-01-06T03:06:36.632Z,0
2019-01-06T03:07:36.537Z,0
2019-01-06T03:08:36.521Z,0
2019-01-06T03:09:36.762Z,0
2019-01-06T03:10:36.507Z,0
2019-01-06T03:11:36.311Z,0
2019-01-06T03:12:35.983Z,0
2019-01-06T03:13:36.466Z,0
2019-01-06T03:14:36.705Z,0
2019-01-06T03:15:37.033Z,0
2019-01-06T03:16:36.447Z,0
2019-01-06T03:17:36.434Z,0
2019-01-06T03:18:36.416Z,0
2019-01-06T03:19:36.671Z,0
2019-01-06T03:20:38.711Z,0
2019-01-06T03:21:36.209Z,0
2019-01-06T03:22:36.664Z,0
2019-01-06T03:23:36.402Z,0
2019-01-06T03:24:36.364Z,0
2019-01-06T03:25:36.623Z,0
2019-01-06T03:26:36.635Z,0
2019-01-06T03:27:36.627Z,0
2019-01-06T03:28:36.604Z,0
2019-01-06T03:29:36.557Z,0
2019-01-06T03:30:36.090Z,0
2019-01-06T03:31:36.541Z,0
2019-01-06T03:32:36.625Z,0
2019-01-06T03:33:36.560Z,0
2019-01-06T03:34:36.544Z,0
2019-01-06T03:35:36.123Z,0
2019-01-06T03:36:36.303Z,0
2019-01-06T03:37:36.248Z,0
2019-01-06T03:38:36.493Z,0
2019-01-06T03:39:36.481Z,0
2019-01-06T03:40:36.218Z,0
2019-01-06T03:41:36.531Z,0
2019-01-06T03:42:36.453Z,0
2019-01-06T03:43:35.942Z,0
2019-01-06T03:44:36.179Z,0
2019-01-06T03:45:36.427Z,0
2019-01-06T03:46:36.424Z,0
2019-01-06T03:47:36.420Z,0
2019-01-06T03:48:36.148Z,0
2019-01-06T03:49:36.146Z,0
2019-01-06T03:50:39.617Z,0
2019-01-06T03:51:36.120Z,0
2019-01-06T03:52:36.108Z,0
2019-01-06T03:53:36.087Z,0
2019-01-06T03:54:36.094Z,0
2019-01-06T03:55:36.090Z,0
2019-01-06T03:56:36.405Z,0
2019-01-06T03:57:36.331Z,0
2019-01-06T03:58:36.052Z,0
2019-01-06T03:59:35.830Z,0
2019-01-06T04:00:36.379Z,0
2019-01-06T04:01:36.288Z,0
2019-01-06T04:02:36.022Z,0
2019-01-06T04:03:36.261Z,0
2019-01-06T04:04:35.998Z,0
2019-01-06T04:05:36.233Z,0
2019-01-06T04:06:36.121Z,0
2019-01-06T04:07:36.206Z,0
2019-01-06T04:08:36.211Z,0
2019-01-06T04:09:36.217Z,0
2019-01-06T04:10:36.188Z,0
2019-01-06T04:11:35.944Z,0
2019-01-06T04:12:35.957Z,0
2019-01-06T04:13:36.158Z,0
2019-01-06T04:14:36.168Z,0
2019-01-06T04:15:36.150Z,0
2019-01-06T04:16:36.215Z,0
2019-01-06T04:17:37.915Z,0
2019-01-06T04:18:35.865Z,0
2019-01-06T04:19:35.851Z,0
2019-01-06T04:20:35.612Z,0
2019-01-06T04:21:36.910Z,0
2019-01-06T04:22:36.083Z,0
2019-01-06T04:23:35.820Z,0
2019-01-06T04:24:35.923Z,0
2019-01-06T04:25:35.830Z,0
2019-01-06T04:26:35.863Z,0
2019-01-06T04:27:36.047Z,0
2019-01-06T04:28:35.534Z,0
2019-01-06T04:29:35.769Z,0
2019-01-06T04:30:35.530Z,0
2019-01-06T04:31:36.001Z,0
2019-01-06T04:32:35.741Z,0
2019-01-06T04:33:35.730Z,0
2019-01-06T04:34:35.735Z,0
2019-01-06T04:35:35.733Z,0
2019-01-06T04:36:35.872Z,0
2019-01-06T04:37:35.702Z,0
2019-01-06T04:38:35.692Z,0
2019-01-06T04:39:35.916Z,0
2019-01-06T04:40:35.906Z,0
2019-01-06T04:41:35.681Z,0
2019-01-06T04:42:35.649Z,0
2019-01-06T04:43:35.895Z,0
2019-01-06T04:44:35.627Z,0
2019-01-06T04:45:35.878Z,0
2019-01-06T04:46:35.979Z,0
2019-01-06T04:47:35.864Z,0
2019-01-06T04:48:35.611Z,0
2019-01-06T04:49:35.842Z,0
2019-01-06T04:50:36.863Z,0
2019-01-06T04:51:37.211Z,0
2019-01-06T04:52:35.817Z,0
2019-01-06T04:53:35.790Z,0
2019-01-06T04:54:35.780Z,0
2019-01-06T04:55:35.776Z,0
2019-01-06T04:56:35.588Z,0
2019-01-06T04:57:35.751Z,0
2019-01-06T04:58:35.515Z,0
2019-01-06T04:59:35.496Z,0
2019-01-06T05:00:35.492Z,0
2019-01-06T05:01:35.722Z,0
2019-01-06T05:02:35.715Z,0
2019-01-06T05:03:35.710Z,0
2019-01-06T05:04:35.681Z,0
2019-01-06T05:05:35.426Z,0
2019-01-06T05:06:35.792Z,0
2019-01-06T05:07:35.663Z,0
2019-01-06T05:08:35.662Z,0
2019-01-06T05:09:35.640Z,0
2019-01-06T05:10:35.625Z,0
2019-01-06T05:11:35.179Z,0
2019-01-06T05:12:35.376Z,0
2019-01-06T05:13:35.627Z,0
2019-01-06T05:14:35.360Z,0
2019-01-06T05:15:35.363Z,0
2019-01-06T05:16:35.642Z,0
2019-01-06T05:17:34.815Z,0
2019-01-06T05:18:35.569Z,0
2019-01-06T05:19:35.295Z,0
2019-01-06T05:20:35.043Z,0
2019-01-06T05:21:37.476Z,0
2019-01-06T05:22:35.271Z,0
2019-01-06T05:23:35.252Z,0
2019-01-06T05:24:35.239Z,0
2019-01-06T05:25:35.506Z,0
2019-01-06T05:26:35.266Z,0
2019-01-06T05:27:35.230Z,0
2019-01-06T05:28:35.206Z,0
2019-01-06T05:29:35.237Z,0
2019-01-06T05:30:35.432Z,0
2019-01-06T05:31:35.517Z,0
2019-01-06T05:32:35.172Z,0
2019-01-06T05:33:35.415Z,0
2019-01-06T05:34:35.399Z,0
2019-01-06T05:35:35.402Z,0
2019-01-06T05:36:35.236Z,0
2019-01-06T05:37:35.371Z,0
2019-01-06T05:38:35.118Z,0
2019-01-06T05:39:35.372Z,0
2019-01-06T05:40:34.892Z,0
2019-01-06T05:41:35.137Z,0
2019-01-06T05:42:35.348Z,0
2019-01-06T05:43:35.344Z,0
2019-01-06T05:44:35.090Z,0
2019-01-06T05:45:35.330Z,0
2019-01-06T05:46:35.128Z,0
2019-01-06T05:47:35.028Z,0
2019-01-06T05:48:35.274Z,0
2019-01-06T05:49:35.065Z,0
2019-01-06T05:50:35.262Z,0
2019-01-06T05:51:34.999Z,0
2019-01-06T05:52:36.105Z,0
2019-01-06T05:53:34.951Z,0
2019-01-06T05:54:34.932Z,0
2019-01-06T05:55:35.173Z,0
2019-01-06T05:56:35.220Z,0
2019-01-06T05:57:34.675Z,0
2019-01-06T05:58:34.646Z,0
2019-01-06T05:59:34.939Z,0
2019-01-06T06:00:35.224Z,0
2019-01-06T06:01:35.180Z,0
2019-01-06T06:02:34.648Z,0
2019-01-06T06:03:34.661Z,0
2019-01-06T06:04:34.874Z,0
2019-01-06T06:05:34.618Z,0
2019-01-06T06:06:35.198Z,0
2019-01-06T06:07:37.376Z,0
2019-01-06T06:08:34.838Z,0
2019-01-06T06:09:35.087Z,0
2019-01-06T06:10:35.071Z,0
2019-01-06T06:11:35.134Z,0
2019-01-06T06:12:34.809Z,0
2019-01-06T06:13:35.030Z,0
2019-01-06T06:14:35.048Z,0
2019-01-06T06:15:34.784Z,0
2019-01-06T06:16:35.038Z,0
2019-01-06T06:17:34.512Z,0
2019-01-06T06:18:34.752Z,0
2019-01-06T06:19:34.985Z,0
2019-01-06T06:20:34.757Z,0
2019-01-06T06:21:34.803Z,0
2019-01-06T06:22:38.965Z,0
2019-01-06T06:23:34.700Z,0
2019-01-06T06:24:34.933Z,0
2019-01-06T06:25:34.990Z,0
2019-01-06T06:26:35.049Z,0
2019-01-06T06:27:34.661Z,0
2019-01-06T06:28:35.215Z,0
2019-01-06T06:29:34.649Z,0
2019-01-06T06:30:35.075Z,0
2019-01-06T06:31:34.179Z,0
2019-01-06T06:32:34.846Z,0
2019-01-06T06:33:34.611Z,0
2019-01-06T06:34:34.600Z,0
2019-01-06T06:35:34.582Z,0
2019-01-06T06:36:34.854Z,0
2019-01-06T06:37:34.556Z,0
2019-01-06T06:38:34.059Z,0
2019-01-06T06:39:34.537Z,0
2019-01-06T06:40:34.546Z,0
2019-01-06T06:41:34.807Z,0
2019-01-06T06:42:34.503Z,0
2019-01-06T06:43:34.495Z,0
2019-01-06T06:44:34.752Z,0
2019-01-06T06:45:34.243Z,0
2019-01-06T06:46:34.270Z,0
2019-01-06T06:47:34.465Z,0
2019-01-06T06:48:34.710Z,0
2019-01-06T06:49:34.199Z,0
2019-01-06T06:50:34.445Z,0
2019-01-06T06:51:34.251Z,4
2019-01-06T06:52:34.192Z,4
2019-01-06T06:53:36.317Z,0
2019-01-06T06:54:34.403Z,0
2019-01-06T06:55:34.653Z,4
2019-01-06T06:56:34.689Z,4
2019-01-06T06:57:34.373Z,4
2019-01-06T06:58:34.371Z,4
2019-01-06T06:59:34.601Z,4
2019-01-06T07:00:34.343Z,8
2019-01-06T07:01:34.169Z,4
2019-01-06T07:02:34.333Z,8
2019-01-06T07:03:34.325Z,8
2019-01-06T07:04:34.063Z,8
2019-01-06T07:05:34.566Z,8
2019-01-06T07:06:34.675Z,12
2019-01-06T07:07:34.538Z,12
2019-01-06T07:08:34.639Z,16
2019-01-06T07:09:34.017Z,16
2019-01-06T07:10:34.265Z,20
2019-01-06T07:11:33.828Z,20
2019-01-06T07:12:34.273Z,24
2019-01-06T07:13:34.561Z,28
2019-01-06T07:14:33.968Z,32
2019-01-06T07:15:34.217Z,32
2019-01-06T07:16:34.209Z,36
2019-01-06T07:17:34.428Z,40
2019-01-06T07:18:34.046Z,48
2019-01-06T07:19:33.932Z,52
2019-01-06T07:20:33.932Z,56
2019-01-06T07:21:34.210Z,56
2019-01-06T07:22:33.904Z,60
2019-01-06T07:23:34.680Z,68
2019-01-06T07:24:33.881Z,72
2019-01-06T07:25:33.880Z,76
2019-01-06T07:26:34.383Z,80
2019-01-06T07:27:34.094Z,84
2019-01-06T07:28:34.348Z,96
2019-01-06T07:29:33.841Z,96
2019-01-06T07:30:34.350Z,104
2019-01-06T07:31:34.083Z,112
2019-01-06T07:32:34.056Z,108
2019-01-06T07:33:34.056Z,108
2019-01-06T07:34:33.793Z,116
2019-01-06T07:35:34.276Z,120
2019-01-06T07:36:34.276Z,124
2019-01-06T07:37:33.762Z,128
2019-01-06T07:38:34.255Z,128
2019-01-06T07:39:34.241Z,136
2019-01-06T07:40:33.815Z,148
2019-01-06T07:41:34.281Z,156
2019-01-06T07:42:33.964Z,160
2019-01-06T07:43:34.029Z,172
2019-01-06T07:44:33.964Z,176
2019-01-06T07:45:34.186Z,180
2019-01-06T07:46:33.497Z,200
2019-01-06T07:47:34.175Z,220
2019-01-06T07:48:33.917Z,228
2019-01-06T07:49:33.651Z,240
2019-01-06T07:50:34.131Z,244
2019-01-06T07:51:33.962Z,248
2019-01-06T07:52:33.645Z,260
2019-01-06T07:53:33.931Z,268
2019-01-06T07:54:34.401Z,288
2019-01-06T07:55:33.599Z,308
2019-01-06T07:56:33.931Z,312
2019-01-06T07:57:34.081Z,336
2019-01-06T07:58:33.395Z,340
2019-01-06T07:59:33.825Z,376
2019-01-06T08:00:34.067Z,396
2019-01-06T08:01:33.802Z,404
2019-01-06T08:02:35.940Z,392
2019-01-06T08:03:33.523Z,392
2019-01-06T08:04:33.775Z,432
2019-01-06T08:05:33.501Z,480
2019-01-06T08:06:33.780Z,524
2019-01-06T08:07:33.725Z,512
2019-01-06T08:08:33.995Z,516
2019-01-06T08:09:33.521Z,516
2019-01-06T08:10:33.768Z,544
2019-01-06T08:11:33.789Z,560
2019-01-06T08:12:33.720Z,600
2019-01-06T08:13:33.997Z,588
2019-01-06T08:14:33.909Z,576
2019-01-06T08:15:33.433Z,540
2019-01-06T08:16:33.237Z,548
2019-01-06T08:17:33.932Z,572
2019-01-06T08:18:33.655Z,584
2019-01-06T08:19:33.376Z,624
2019-01-06T08:20:35.247Z,620
2019-01-06T08:21:33.841Z,616
2019-01-06T08:22:33.356Z,608
2019-01-06T08:23:33.360Z,616
2019-01-06T08:24:36.976Z,612
2019-01-06T08:25:33.335Z,604
2019-01-06T08:26:33.622Z,572
2019-01-06T08:27:33.806Z,604
2019-01-06T08:28:33.823Z,584
2019-01-06T08:29:33.530Z,632
2019-01-06T08:30:33.525Z,648
2019-01-06T08:31:33.579Z,668
2019-01-06T08:32:33.494Z,676
2019-01-06T08:33:33.267Z,724
2019-01-06T08:34:33.478Z,812
2019-01-06T08:35:33.247Z,956
2019-01-06T08:36:33.739Z,1128
2019-01-06T08:37:33.472Z,1360
2019-01-06T08:38:33.734Z,1376
2019-01-06T08:39:33.201Z,1364
2019-01-06T08:40:33.759Z,1180
2019-01-06T08:41:33.441Z,1000
2019-01-06T08:42:33.436Z,912
2019-01-06T08:43:33.690Z,908
2019-01-06T08:44:33.400Z,948
2019-01-06T08:45:34.354Z,976
2019-01-06T08:46:33.172Z,1016
2019-01-06T08:47:33.132Z,1004
2019-01-06T08:48:33.116Z,924
2019-01-06T08:49:33.351Z,916
2019-01-06T08:50:33.108Z,844
2019-01-06T08:51:33.424Z,824
2019-01-06T08:52:33.569Z,832
2019-01-06T08:53:33.578Z,792
2019-01-06T08:54:33.302Z,792
2019-01-06T08:55:37.319Z,860
2019-01-06T08:56:34.951Z,912
2019-01-06T08:57:33.538Z,940
2019-01-06T08:58:33.529Z,1020
2019-01-06T08:59:33.016Z,1056
2019-01-06T09:00:33.296Z,1072
2019-01-06T09:01:33.072Z,1120
2019-01-06T09:02:33.236Z,1080
2019-01-06T09:03:35.077Z,1188
2019-01-06T09:04:33.240Z,1288
2019-01-06T09:05:33.998Z,1320
2019-01-06T09:06:33.550Z,1432
2019-01-06T09:07:33.175Z,1528
2019-01-06T09:08:32.947Z,1460
2019-01-06T09:09:32.894Z,1324
2019-01-06T09:10:32.695Z,1280
2019-01-06T09:11:32.905Z,1184
2019-01-06T09:12:32.894Z,1196
2019-01-06T09:13:33.381Z,1200
2019-01-06T09:14:33.395Z,1364
2019-01-06T09:15:33.358Z,1480
2019-01-06T09:16:33.395Z,1708
2019-01-06T09:17:33.395Z,1808
2019-01-06T09:18:33.093Z,1732
2019-01-06T09:19:33.087Z,1600
2019-01-06T09:20:33.332Z,1432
2019-01-06T09:21:32.915Z,1224
2019-01-06T09:22:33.062Z,1168
2019-01-06T09:23:33.055Z,1140
2019-01-06T09:24:32.758Z,1148
2019-01-06T09:25:40.679Z,1260
2019-01-06T09:26:33.057Z,1360
2019-01-06T09:27:33.005Z,1532
2019-01-06T09:28:33.294Z,1640
2019-01-06T09:29:34.919Z,1896
2019-01-06T09:30:33.245Z,1832
2019-01-06T09:31:33.782Z,1704
2019-01-06T09:32:33.198Z,1596
2019-01-06T09:33:32.705Z,1580
2019-01-06T09:34:33.190Z,1592
2019-01-06T09:35:33.625Z,1568
2019-01-06T09:36:33.238Z,1544
2019-01-06T09:37:33.155Z,1464
2019-01-06T09:38:33.159Z,1520
2019-01-06T09:39:33.137Z,1552
2019-01-06T09:40:34.310Z,1644
2019-01-06T09:41:33.693Z,1664
2019-01-06T09:42:33.126Z,1624
2019-01-06T09:43:33.108Z,1712
2019-01-06T09:44:32.847Z,1852
2019-01-06T09:45:33.447Z,1828
2019-01-06T09:46:32.694Z,1764
2019-01-06T09:47:32.602Z,1712
2019-01-06T09:48:32.564Z,1660
2019-01-06T09:49:33.055Z,1600
2019-01-06T09:50:33.057Z,1440
2019-01-06T09:51:32.636Z,1412
2019-01-06T09:52:33.031Z,1416
2019-01-06T09:53:33.010Z,1480
2019-01-06T09:54:32.790Z,1472
2019-01-06T09:55:32.997Z,1420
2019-01-06T09:56:33.774Z,1384
2019-01-06T09:57:33.005Z,1388
2019-01-06T09:58:32.971Z,1352
2019-01-06T09:59:32.958Z,1336
2019-01-06T10:00:32.708Z,1412
2019-01-06T10:01:33.021Z,1344
2019-01-06T10:02:32.701Z,1380
2019-01-06T10:03:32.942Z,1404
2019-01-06T10:04:39.925Z,1312
2019-01-06T10:05:32.915Z,1288
2019-01-06T10:06:32.976Z,1288
2019-01-06T10:07:32.894Z,1264
2019-01-06T10:08:32.920Z,1300
2019-01-06T10:09:32.877Z,1452
2019-01-06T10:10:32.627Z,1560
2019-01-06T10:11:32.922Z,1480
2019-01-06T10:12:32.903Z,1500
2019-01-06T10:13:32.850Z,1576
2019-01-06T10:14:32.603Z,1608
2019-01-06T10:15:32.829Z,1608
2019-01-06T10:16:32.597Z,1600
2019-01-06T10:17:32.864Z,1528
2019-01-06T10:18:32.560Z,1464
2019-01-06T10:19:32.566Z,1572
2019-01-06T10:20:32.512Z,1672
2019-01-06T10:21:32.930Z,1792
2019-01-06T10:22:32.785Z,1768
2019-01-06T10:23:32.273Z,1764
2019-01-06T10:24:32.790Z,1668
2019-01-06T10:25:32.256Z,1644
2019-01-06T10:26:32.523Z,1668
2019-01-06T10:27:34.626Z,1720
2019-01-06T10:28:32.707Z,1788
2019-01-06T10:29:32.713Z,1724
2019-01-06T10:30:32.719Z,1728
2019-01-06T10:31:32.761Z,1680
2019-01-06T10:32:32.674Z,1660
2019-01-06T10:33:32.174Z,1784
2019-01-06T10:34:34.017Z,1836
2019-01-06T10:35:32.674Z,1976
2019-01-06T10:36:32.776Z,1992
2019-01-06T10:37:32.473Z,1880
2019-01-06T10:38:32.626Z,1772
2019-01-06T10:39:32.358Z,1696
2019-01-06T10:40:32.345Z,1704
2019-01-06T10:41:32.444Z,1700
2019-01-06T10:42:32.544Z,1748
2019-01-06T10:43:32.410Z,1652
2019-01-06T10:44:32.323Z,1672
2019-01-06T10:45:32.085Z,1576
2019-01-06T10:46:32.608Z,1656
2019-01-06T10:47:32.549Z,1668
2019-01-06T10:48:32.295Z,1692
2019-01-06T10:49:32.273Z,1740
2019-01-06T10:50:32.922Z,1844
2019-01-06T10:51:32.377Z,1764
2019-01-06T10:52:32.523Z,1724
2019-01-06T10:53:32.003Z,1720
2019-01-06T10:54:32.262Z,1612
2019-01-06T10:55:32.486Z,1572
2019-01-06T10:56:32.265Z,1624
2019-01-06T10:57:32.769Z,1636
2019-01-06T10:58:32.465Z,1528
2019-01-06T10:59:32.235Z,1444
2019-01-06T11:00:32.214Z,1492
2019-01-06T11:01:32.260Z,1524
2019-01-06T11:02:34.281Z,1584
2019-01-06T11:03:32.166Z,1588
2019-01-06T11:04:32.423Z,1608
2019-01-06T11:05:32.151Z,1768
2019-01-06T11:06:32.443Z,1904
2019-01-06T11:07:32.163Z,2044
2019-01-06T11:08:32.386Z,2028
2019-01-06T11:09:32.079Z,1916
2019-01-06T11:10:32.073Z,1968
2019-01-06T11:11:32.160Z,1892
2019-01-06T11:12:32.354Z,1840
2019-01-06T11:13:32.329Z,1768
2019-01-06T11:14:32.300Z,1796
2019-01-06T11:15:32.074Z,1692
2019-01-06T11:16:32.360Z,1616
2019-01-06T11:17:32.049Z,1664
2019-01-06T11:18:32.288Z,1636
2019-01-06T11:19:32.042Z,1612
2019-01-06T11:20:32.262Z,1628
2019-01-06T11:21:31.933Z,1572
2019-01-06T11:22:32.239Z,1464
2019-01-06T11:23:31.967Z,1512
2019-01-06T11:24:31.987Z,1528
2019-01-06T11:25:32.279Z,1500
2019-01-06T11:26:32.022Z,1412
2019-01-06T11:27:36.366Z,1280
2019-01-06T11:28:31.967Z,1204
2019-01-06T11:29:32.185Z,1140
2019-01-06T11:30:32.187Z,1156
2019-01-06T11:31:32.259Z,1140
2019-01-06T11:32:32.172Z,1156
2019-01-06T11:33:31.938Z,1136
2019-01-06T11:34:32.153Z,1152
2019-01-06T11:35:31.898Z,1204
2019-01-06T11:36:32.217Z,1292
2019-01-06T11:37:31.888Z,1384
2019-01-06T11:38:32.178Z,1448
2019-01-06T11:39:31.882Z,1440
2019-01-06T11:40:31.868Z,1488
2019-01-06T11:41:32.152Z,1472
2019-01-06T11:42:32.002Z,1400
2019-01-06T11:43:31.848Z,1416
2019-01-06T11:44:31.593Z,1420
2019-01-06T11:45:31.799Z,1440
2019-01-06T11:46:31.896Z,1420
2019-01-06T11:47:31.796Z,1428
2019-01-06T11:48:31.800Z,1552
2019-01-06T11:49:31.270Z,1516
2019-01-06T11:50:31.832Z,1468
2019-01-06T11:51:31.817Z,1492
2019-01-06T11:52:31.789Z,1596
2019-01-06T11:53:31.988Z,1612
2019-01-06T11:54:31.832Z,1704
2019-01-06T11:55:31.972Z,1720
2019-01-06T11:56:31.875Z,1712
2019-01-06T11:57:32.816Z,1752
2019-01-06T11:58:31.686Z,1828
2019-01-06T11:59:31.685Z,1836
2019-01-06T12:00:31.419Z,1916
2019-01-06T12:01:31.773Z,1892
2019-01-06T12:02:38.754Z,1836
2019-01-06T12:03:31.651Z,1880
2019-01-06T12:04:31.655Z,1708
2019-01-06T12:05:31.653Z,1604
2019-01-06T12:06:31.455Z,1644
2019-01-06T12:07:31.939Z,1708
2019-01-06T12:08:31.879Z,1680
2019-01-06T12:09:31.592Z,1688
2019-01-06T12:10:31.338Z,1688
2019-01-06T12:11:31.959Z,1700
2019-01-06T12:12:31.830Z,1556
2019-01-06T12:13:31.674Z,1604
2019-01-06T12:14:31.562Z,1692
2019-01-06T12:15:31.602Z,1680
2019-01-06T12:16:31.823Z,1596
2019-01-06T12:17:31.548Z,1672
2019-01-06T12:18:31.276Z,1736
2019-01-06T12:19:38.578Z,1776
2019-01-06T12:20:31.769Z,1804
2019-01-06T12:21:31.520Z,1844
2019-01-06T12:22:31.756Z,1952
2019-01-06T12:23:31.493Z,1908
2019-01-06T12:24:31.492Z,1864
2019-01-06T12:25:31.212Z,1836
2019-01-06T12:26:31.056Z,1856
2019-01-06T12:27:31.485Z,1832
2019-01-06T12:28:35.433Z,1692
2019-01-06T12:29:31.701Z,1576
2019-01-06T12:30:31.197Z,1536
2019-01-06T12:31:31.203Z,1580
2019-01-06T12:32:31.651Z,1504
2019-01-06T12:33:31.391Z,1448
2019-01-06T12:34:31.387Z,1360
2019-01-06T12:35:31.142Z,1344
2019-01-06T12:36:31.140Z,1312
2019-01-06T12:37:31.347Z,1292
2019-01-06T12:38:31.338Z,1272
2019-01-06T12:39:31.598Z,1256
2019-01-06T12:40:31.333Z,1308
2019-01-06T12:41:31.126Z,1356
2019-01-06T12:42:31.571Z,1512
2019-01-06T12:43:31.663Z,1520
2019-01-06T12:44:31.878Z,1584
2019-01-06T12:45:31.049Z,1572
2019-01-06T12:46:31.580Z,1476
2019-01-06T12:47:31.056Z,1436
2019-01-06T12:48:31.276Z,1416
2019-01-06T12:49:31.512Z,1372
2019-01-06T12:50:33.051Z,1304
2019-01-06T12:51:31.565Z,1344
2019-01-06T12:52:31.472Z,1352
2019-01-06T12:53:38.023Z,1320
2019-01-06T12:54:31.486Z,1288
2019-01-06T12:55:30.960Z,1260
2019-01-06T12:56:30.964Z,1320
2019-01-06T12:57:31.191Z,1384
2019-01-06T12:58:32.047Z,1384
2019-01-06T12:59:31.176Z,1436
2019-01-06T13:00:31.153Z,1476
2019-01-06T13:01:31.000Z,1512
2019-01-06T13:02:31.188Z,1528
2019-01-06T13:03:31.161Z,1492
2019-01-06T13:04:31.121Z,1452
2019-01-06T13:05:31.126Z,1440
2019-01-06T13:06:31.450Z,1396
2019-01-06T13:07:31.354Z,1408
2019-01-06T13:08:31.362Z,1400
2019-01-06T13:09:31.099Z,1456
2019-01-06T13:10:31.335Z,1476
2019-01-06T13:11:31.318Z,1496
2019-01-06T13:12:31.051Z,1516
2019-01-06T13:13:38.905Z,1468
2019-01-06T13:14:31.299Z,1480
2019-01-06T13:15:31.042Z,1532
2019-01-06T13:16:31.313Z,1528
2019-01-06T13:17:31.033Z,1488
2019-01-06T13:18:31.025Z,1476
2019-01-06T13:19:31.262Z,1460
2019-01-06T13:20:30.741Z,1412
2019-01-06T13:21:31.272Z,1420
2019-01-06T13:22:31.241Z,1364
2019-01-06T13:23:30.974Z,1296
2019-01-06T13:24:30.738Z,1264
2019-01-06T13:25:30.771Z,1248
2019-01-06T13:26:30.737Z,1240
2019-01-06T13:27:31.196Z,1184
2019-01-06T13:28:31.214Z,1208
2019-01-06T13:29:33.220Z,1208
2019-01-06T13:30:31.163Z,1200
2019-01-06T13:31:30.661Z,1236
2019-01-06T13:32:30.912Z,1244
2019-01-06T13:33:30.885Z,1192
2019-01-06T13:34:31.195Z,1160
2019-01-06T13:35:31.125Z,1144
2019-01-06T13:36:30.948Z,1184
2019-01-06T13:37:31.103Z,1144
2019-01-06T13:38:31.088Z,1164
2019-01-06T13:39:30.856Z,1144
2019-01-06T13:40:31.066Z,1152
2019-01-06T13:41:30.670Z,1244
2019-01-06T13:42:32.142Z,1240
2019-01-06T13:43:30.825Z,1196
2019-01-06T13:44:30.854Z,1200
2019-01-06T13:45:31.041Z,1228
2019-01-06T13:46:31.031Z,1244
2019-01-06T13:47:30.514Z,1236
2019-01-06T13:48:31.014Z,1252
2019-01-06T13:49:30.786Z,1276
2019-01-06T13:50:30.761Z,1272
2019-01-06T13:51:30.517Z,1260
2019-01-06T13:52:30.761Z,1252
2019-01-06T13:53:31.008Z,1196
2019-01-06T13:54:37.424Z,1152
2019-01-06T13:55:30.713Z,1124
2019-01-06T13:56:30.965Z,1056
2019-01-06T13:57:30.445Z,1008
2019-01-06T13:58:30.964Z,984
2019-01-06T13:59:30.953Z,1000
2019-01-06T14:00:30.696Z,988
2019-01-06T14:01:30.874Z,944
2019-01-06T14:02:30.402Z,888
2019-01-06T14:03:30.891Z,816
2019-01-06T14:04:30.383Z,748
2019-01-06T14:05:30.626Z,692